createdAt,value
2018-06-20T00:01:05.408Z,92.60
2018-06-20T00:03:38.454Z,92.40
2018-06-20T00:06:11.159Z,92.20
2018-06-20T00:08:51.760Z,92.50
2018-06-20T00:11:25.549Z,92.80
2018-06-20T00:13:59.076Z,93.00
2018-06-20T00:16:37.069Z,93.00
2018-06-20T00:19:10.123Z,93.10
2018-06-20T00:21:43.288Z,93.10
2018-06-20T00:24:17.435Z,93.20
2018-06-20T00:26:50.622Z,93.00
2018-06-20T00:29:23.222Z,93.00
2018-06-20T00:31:55.217Z,93.10
2018-06-20T00:34:28.898Z,93.10
2018-06-20T00:37:01.370Z,93.10
2018-06-20T00:39:33.754Z,93.10
2018-06-20T00:42:06.966Z,93.30
2018-06-20T00:44:40.424Z,93.40
2018-06-20T00:47:13.540Z,93.10
2018-06-20T00:49:47.515Z,93.20
2018-06-20T00:52:20.104Z,93.40
2018-06-20T00:54:52.857Z,93.10
2018-06-20T00:57:25.925Z,92.90
2018-06-20T00:59:59.201Z,93.00
2018-06-20T01:02:32.462Z,92.80
2018-06-20T01:05:07.725Z,92.90
2018-06-20T01:07:40.819Z,93.20
2018-06-20T01:10:14.800Z,93.30
2018-06-20T01:12:47.851Z,93.00
2018-06-20T01:15:21.754Z,92.90
2018-06-20T01:17:54.606Z,93.10
2018-06-20T01:20:27.872Z,93.30
2018-06-20T01:23:01.616Z,93.30
2018-06-20T01:25:34.095Z,93.30
2018-06-20T01:28:06.332Z,93.50
2018-06-20T01:33:32.604Z,93.60
2018-06-20T01:36:05.567Z,93.70
2018-06-20T01:38:38.481Z,93.90
2018-06-20T01:41:11.134Z,93.90
2018-06-20T01:43:45.170Z,93.80
2018-06-20T01:46:18.764Z,93.60
2018-06-20T01:48:51.384Z,93.30
2018-06-20T01:51:24.941Z,93.20
2018-06-20T01:53:59.555Z,93.60
2018-06-20T01:59:03.877Z,94.10
2018-06-20T02:01:37.005Z,94.10
2018-06-20T02:04:10.114Z,94.20
2018-06-20T02:06:42.396Z,94.20
2018-06-20T02:09:15.918Z,94.20
2018-06-20T02:11:49.133Z,94.30
2018-06-20T02:14:22.662Z,94.20
2018-06-20T02:16:55.166Z,94.40
2018-06-20T02:19:28.054Z,94.40
2018-06-20T02:22:00.829Z,94.10
2018-06-20T02:24:34.774Z,94.30
2018-06-20T02:27:07.495Z,94.20
2018-06-20T02:29:40.483Z,94.00
2018-06-20T02:32:13.114Z,94.00
2018-06-20T02:34:47.379Z,94.10
2018-06-20T02:37:20.081Z,94.10
2018-06-20T02:40:01.015Z,94.30
2018-06-20T02:42:34.108Z,94.20
2018-06-20T02:45:07.050Z,94.30
2018-06-20T02:47:43.585Z,94.00
2018-06-20T02:50:16.961Z,93.60
2018-06-20T02:52:51.074Z,93.90
2018-06-20T02:55:24.287Z,93.20
2018-06-20T02:57:57.296Z,93.70
2018-06-20T03:00:31.484Z,94.00
2018-06-20T03:03:04.596Z,93.90
2018-06-20T03:05:37.170Z,93.90
2018-06-20T03:08:18.502Z,94.10
2018-06-20T03:10:55.056Z,93.70
2018-06-20T03:13:28.038Z,93.80
2018-06-20T03:16:01.098Z,93.60
2018-06-20T03:18:35.556Z,93.60
2018-06-20T03:21:09.462Z,93.70
2018-06-20T03:23:42.967Z,93.80
2018-06-20T03:26:16.337Z,93.70
2018-06-20T03:28:48.979Z,93.70
2018-06-20T03:31:21.376Z,93.50
2018-06-20T03:33:54.496Z,93.30
2018-06-20T03:36:28.086Z,93.00
2018-06-20T03:39:00.240Z,92.50
2018-06-20T03:41:33.608Z,92.20
2018-06-20T03:44:06.846Z,91.80
2018-06-20T03:46:39.950Z,91.80
2018-06-20T03:49:16.303Z,91.60
2018-06-20T03:51:50.181Z,91.50
2018-06-20T03:54:21.892Z,91.60
2018-06-20T03:56:54.478Z,91.50
2018-06-20T03:59:27.328Z,91.40
2018-06-20T04:01:59.185Z,91.30
2018-06-20T04:04:31.635Z,91.40
2018-06-20T04:07:04.050Z,90.90
2018-06-20T04:09:36.252Z,91.10
2018-06-20T04:12:08.862Z,90.80
2018-06-20T04:14:41.292Z,91.20
2018-06-20T04:17:13.520Z,91.00
2018-06-20T04:19:45.990Z,90.60
2018-06-20T04:22:19.003Z,90.50
2018-06-20T04:24:51.399Z,90.40
2018-06-20T04:27:23.993Z,90.10
2018-06-20T04:29:57.116Z,89.70
2018-06-20T04:32:30.031Z,89.50
2018-06-20T04:35:02.338Z,89.30
2018-06-20T04:37:35.120Z,89.20
2018-06-20T04:40:08.346Z,89.30
2018-06-20T04:42:40.303Z,89.20
2018-06-20T04:45:12.525Z,89.10
2018-06-20T04:47:44.653Z,89.10
2018-06-20T04:50:18.194Z,88.80
2018-06-20T04:52:54.357Z,88.80
2018-06-20T04:55:26.855Z,88.70
2018-06-20T04:57:59.183Z,88.80
2018-06-20T05:00:31.778Z,89.10
2018-06-20T05:03:03.598Z,88.90
2018-06-20T05:05:39.086Z,88.30
2018-06-20T05:08:11.732Z,88.00
2018-06-20T05:10:48.902Z,87.90
2018-06-20T05:13:20.196Z,87.90
2018-06-20T05:18:23.320Z,87.80
2018-06-20T05:20:54.951Z,87.70
2018-06-20T05:23:26.375Z,87.30
2018-06-20T05:25:57.868Z,87.60
2018-06-20T05:28:30.181Z,87.30
2018-06-20T05:31:01.751Z,87.20
2018-06-20T05:33:33.462Z,87.20
2018-06-20T05:36:04.465Z,87.20
2018-06-20T05:38:46.933Z,87.20
2018-06-20T05:41:19.085Z,87.20
2018-06-20T05:43:51.242Z,87.20
2018-06-20T05:46:26.487Z,87.20
2018-06-20T05:48:57.959Z,87.20
2018-06-20T05:51:29.387Z,86.40
2018-06-20T05:54:04.492Z,86.40
2018-06-20T05:56:40.037Z,85.90
2018-06-20T05:59:13.044Z,85.60
2018-06-20T06:01:44.524Z,85.60
2018-06-20T06:04:20.194Z,85.20
2018-06-20T06:06:51.386Z,85.00
2018-06-20T06:09:23.173Z,85.10
2018-06-20T06:11:55.189Z,84.50
2018-06-20T06:14:26.684Z,85.20
2018-06-20T06:16:59.205Z,85.50
2018-06-20T06:19:30.605Z,85.90
2018-06-20T06:22:02.358Z,85.40
2018-06-20T06:24:34.244Z,85.30
2018-06-20T06:27:05.711Z,85.50
2018-06-20T06:32:08.858Z,85.40
2018-06-20T06:34:41.876Z,85.10
2018-06-20T06:37:13.422Z,85.20
2018-06-20T06:39:45.070Z,85.30
2018-06-20T06:42:21.163Z,84.60
2018-06-20T06:44:52.482Z,84.90
2018-06-20T06:47:24.190Z,83.90
2018-06-20T06:49:57.287Z,84.30
2018-06-20T06:52:28.845Z,84.10
2018-06-20T06:55:06.111Z,83.70
2018-06-20T06:57:37.955Z,82.90
2018-06-20T07:00:09.607Z,83.00
2018-06-20T07:02:59.079Z,83.10
2018-06-20T07:05:49.992Z,82.80
2018-06-20T07:09:08.715Z,82.80
2018-06-20T07:11:41.886Z,82.60
2018-06-20T07:14:13.196Z,82.00
2018-06-20T07:16:44.895Z,82.20
2018-06-20T07:19:16.628Z,81.90
2018-06-20T07:21:48.404Z,81.90
2018-06-20T07:24:20.098Z,81.80
2018-06-20T07:26:50.937Z,81.80
2018-06-20T07:29:23.173Z,81.50
2018-06-20T07:31:54.707Z,81.30
2018-06-20T07:34:31.662Z,80.30
2018-06-20T07:37:06.425Z,80.10
2018-06-20T07:39:37.933Z,79.40
2018-06-20T07:42:10.612Z,79.00
2018-06-20T07:44:42.615Z,78.90
2018-06-20T07:47:14.452Z,78.90
2018-06-20T07:49:46.687Z,78.60
2018-06-20T07:52:18.167Z,78.10
2018-06-20T07:54:49.802Z,77.80
2018-06-20T07:57:20.366Z,77.50
2018-06-20T07:59:57.079Z,76.60
2018-06-20T08:02:43.107Z,76.40
2018-06-20T08:05:19.699Z,77.00
2018-06-20T08:07:57.738Z,77.40
2018-06-20T08:10:34.289Z,77.80
2018-06-20T08:13:10.962Z,77.90
2018-06-20T08:15:47.766Z,77.60
2018-06-20T08:18:24.425Z,76.40
2018-06-20T08:20:55.877Z,76.20
2018-06-20T08:23:27.832Z,76.60
2018-06-20T08:25:59.630Z,76.80
2018-06-20T08:28:31.549Z,77.90
2018-06-20T08:31:03.118Z,79.20
2018-06-20T08:33:34.954Z,79.30
2018-06-20T08:36:06.359Z,79.20
2018-06-20T08:41:32.360Z,76.60
2018-06-20T08:44:03.723Z,75.90
2018-06-20T08:46:35.689Z,75.90
2018-06-20T08:51:38.766Z,75.10
2018-06-20T08:54:09.840Z,75.10
2018-06-20T08:56:41.264Z,75.40
2018-06-20T08:59:14.881Z,75.40
2018-06-20T09:01:46.530Z,75.50
2018-06-20T09:04:22.987Z,75.50
2018-06-20T09:07:01.014Z,75.60
2018-06-20T09:09:38.019Z,75.20
2018-06-20T09:12:14.400Z,74.40
2018-06-20T09:14:51.783Z,73.30
2018-06-20T09:17:27.978Z,73.00
2018-06-20T09:20:00.907Z,72.80
2018-06-20T09:22:31.553Z,72.00
2018-06-20T09:25:02.264Z,72.10
2018-06-20T09:27:35.650Z,72.80
2018-06-20T09:30:08.234Z,72.70
2018-06-20T09:32:39.765Z,71.80
2018-06-20T09:35:11.549Z,70.00
2018-06-20T09:37:43.314Z,70.00
2018-06-20T09:40:14.661Z,71.60
2018-06-20T09:42:46.946Z,72.10
2018-06-20T09:45:18.278Z,72.30
2018-06-20T09:47:49.828Z,72.60
2018-06-20T09:50:25.809Z,71.80
2018-06-20T09:52:57.746Z,71.00
2018-06-20T09:55:29.060Z,71.50
2018-06-20T09:58:00.577Z,70.10
2018-06-20T10:00:36.971Z,69.40
2018-06-20T10:03:16.385Z,68.30
2018-06-20T10:05:53.412Z,67.40
2018-06-20T10:09:29.969Z,66.50
2018-06-20T10:12:05.655Z,66.60
2018-06-20T10:14:37.395Z,67.00
2018-06-20T10:17:11.698Z,67.80
2018-06-20T10:19:42.987Z,68.10
2018-06-20T10:22:13.983Z,67.80
2018-06-20T10:24:46.331Z,67.70
2018-06-20T10:27:28.403Z,66.50
2018-06-20T10:29:59.656Z,66.70
2018-06-20T10:32:32.336Z,66.30
2018-06-20T10:35:05.015Z,65.90
2018-06-20T10:37:36.723Z,66.50
2018-06-20T10:40:12.754Z,66.80
2018-06-20T10:42:42.396Z,66.60
2018-06-20T10:45:18.809Z,65.20
2018-06-20T10:47:50.515Z,63.50
2018-06-20T10:50:20.043Z,62.00
2018-06-20T10:52:49.567Z,61.90
2018-06-20T10:55:19.941Z,63.10
2018-06-20T10:57:59.383Z,64.40
2018-06-20T11:00:35.171Z,66.60
2018-06-20T11:03:14.640Z,66.80
2018-06-20T11:05:49.924Z,64.50
2018-06-20T11:08:29.877Z,63.30
2018-06-20T11:11:04.943Z,62.90
2018-06-20T11:13:34.878Z,62.00
2018-06-20T11:16:06.017Z,61.80
2018-06-20T11:18:39.561Z,61.00
2018-06-20T11:21:09.416Z,61.60
2018-06-20T11:23:39.083Z,62.20
2018-06-20T11:26:10.514Z,62.90
2018-06-20T11:28:40.601Z,61.50
2018-06-20T11:31:10.760Z,59.70
2018-06-20T11:33:41.315Z,60.30
2018-06-20T11:36:10.941Z,61.60
2018-06-20T11:38:40.807Z,61.00
2018-06-20T11:41:10.580Z,59.70
2018-06-20T11:43:40.701Z,61.00
2018-06-20T11:46:16.466Z,60.70
2018-06-20T11:48:46.842Z,59.60
2018-06-20T11:51:17.441Z,59.50
2018-06-20T11:53:46.868Z,58.90
2018-06-20T11:56:16.296Z,58.20
2018-06-20T11:58:51.649Z,58.40
2018-06-20T12:04:01.482Z,57.50
2018-06-20T12:06:37.524Z,57.20
2018-06-20T12:09:14.315Z,57.40
2018-06-20T12:11:49.702Z,57.40
2018-06-20T12:14:26.297Z,56.80
2018-06-20T12:16:55.195Z,57.20
2018-06-20T12:19:29.872Z,56.30
2018-06-20T12:22:05.276Z,55.90
2018-06-20T12:24:41.486Z,55.90
2018-06-20T12:27:16.425Z,56.60
2018-06-20T12:29:51.527Z,57.80
2018-06-20T12:32:28.268Z,56.00
2018-06-20T12:35:03.175Z,55.40
2018-06-20T12:37:38.092Z,56.80
2018-06-20T12:40:17.287Z,56.20
2018-06-20T12:42:52.812Z,55.50
2018-06-20T12:45:23.291Z,54.70
2018-06-20T12:47:55.383Z,53.70
2018-06-20T12:50:31.055Z,54.20
2018-06-20T12:53:00.264Z,54.30
2018-06-20T12:55:29.555Z,54.10
2018-06-20T12:57:59.311Z,53.50
2018-06-20T13:00:28.756Z,53.40
2018-06-20T13:02:59.046Z,53.20
2018-06-20T13:05:31.168Z,53.00
2018-06-20T13:08:03.175Z,52.50
2018-06-20T13:10:35.089Z,53.40
2018-06-20T13:13:06.288Z,53.90
2018-06-20T13:15:37.658Z,54.10
2018-06-20T13:18:15.247Z,54.30
2018-06-20T13:20:47.243Z,53.90
2018-06-20T13:23:20.001Z,52.60
2018-06-20T13:25:51.551Z,52.80
2018-06-20T13:28:24.991Z,53.30
2018-06-20T13:31:05.093Z,54.30
2018-06-20T13:33:40.918Z,54.50
2018-06-20T13:36:16.795Z,53.60
2018-06-20T13:38:53.696Z,52.20
2018-06-20T13:41:29.663Z,52.80
2018-06-20T13:44:05.129Z,54.60
2018-06-20T13:46:55.732Z,55.30
2018-06-20T13:49:28.928Z,54.60
2018-06-20T13:52:03.874Z,53.50
2018-06-20T13:54:36.543Z,53.50
2018-06-20T13:57:09.422Z,53.80
2018-06-20T13:59:43.548Z,54.20
2018-06-20T14:02:15.825Z,55.20
2018-06-20T14:04:48.173Z,55.90
2018-06-20T14:07:21.694Z,53.40
2018-06-20T14:09:54.377Z,52.50
2018-06-20T14:12:28.357Z,52.20
2018-06-20T14:15:01.054Z,52.70
2018-06-20T14:17:33.774Z,51.40
2018-06-20T14:20:09.799Z,51.80
2018-06-20T14:22:42.279Z,51.30
2018-06-20T14:25:15.660Z,51.30
2018-06-20T14:27:48.282Z,52.40
2018-06-20T14:30:24.494Z,53.70
2018-06-20T14:33:00.509Z,53.00
2018-06-20T14:35:36.925Z,52.20
2018-06-20T14:38:14.285Z,53.00
2018-06-20T14:40:50.640Z,52.50
2018-06-20T14:43:28.770Z,52.20
2018-06-20T14:46:07.517Z,51.70
2018-06-20T14:48:39.552Z,52.60
2018-06-20T14:53:41.111Z,51.20
2018-06-20T14:56:13.510Z,50.10
2018-06-20T14:58:45.506Z,50.70
2018-06-20T15:01:17.831Z,50.20
2018-06-20T15:03:49.649Z,49.50
2018-06-20T15:06:20.429Z,49.30
2018-06-20T15:08:52.383Z,48.50
2018-06-20T15:11:23.617Z,48.40
2018-06-20T15:13:53.765Z,47.70
2018-06-20T15:19:19.912Z,49.10
2018-06-20T15:21:53.336Z,48.70
2018-06-20T15:24:24.875Z,48.50
2018-06-20T15:27:00.794Z,48.80
2018-06-20T15:30:38.926Z,48.50
2018-06-20T15:33:22.065Z,48.60
2018-06-20T15:35:59.212Z,48.60
2018-06-20T15:38:31.614Z,48.50
2018-06-20T15:41:03.234Z,47.80
2018-06-20T15:43:36.975Z,48.30
2018-06-20T15:46:12.398Z,48.70
2018-06-20T15:48:46.327Z,48.20
2018-06-20T15:51:18.365Z,47.80
2018-06-20T15:53:51.791Z,47.70
2018-06-20T15:56:24.316Z,48.30
2018-06-20T15:58:57.693Z,47.10
2018-06-20T16:01:28.977Z,47.60
2018-06-20T16:04:01.603Z,47.90
2018-06-20T16:06:38.486Z,49.10
2018-06-20T16:09:16.713Z,48.90
2018-06-20T16:11:48.638Z,49.50
2018-06-20T16:14:22.110Z,50.80
2018-06-20T16:16:54.631Z,50.50
2018-06-20T16:19:36.325Z,49.60
2018-06-20T16:22:16.500Z,49.90
2018-06-20T16:27:37.609Z,48.90
2018-06-20T16:30:21.385Z,49.20
2018-06-20T16:32:55.805Z,48.60
2018-06-20T16:35:28.987Z,48.40
2018-06-20T16:38:00.415Z,49.20
2018-06-20T16:40:37.038Z,48.70
2018-06-20T16:43:09.067Z,48.20
2018-06-20T16:45:41.803Z,48.20
2018-06-20T16:48:15.132Z,47.70
2018-06-20T16:50:46.813Z,47.60
2018-06-20T16:53:17.748Z,47.90
2018-06-20T16:55:50.039Z,48.60
2018-06-20T16:58:21.821Z,49.10
2018-06-20T17:00:58.438Z,49.10
2018-06-20T17:03:32.229Z,49.50
2018-06-20T17:06:03.678Z,48.60
2018-06-20T17:08:34.521Z,48.80
2018-06-20T17:11:06.096Z,49.40
2018-06-20T17:13:51.692Z,48.90
2018-06-20T17:16:33.512Z,48.90
2018-06-20T17:19:10.774Z,48.80
2018-06-20T17:21:48.213Z,48.30
2018-06-20T17:24:25.224Z,48.70
2018-06-20T17:26:56.538Z,49.50
2018-06-20T17:29:28.167Z,49.70
2018-06-20T17:32:01.108Z,49.40
2018-06-20T17:34:33.128Z,50.00
2018-06-20T17:37:05.480Z,50.80
2018-06-20T17:39:39.312Z,51.00
2018-06-20T17:42:11.745Z,51.10
2018-06-20T17:44:43.650Z,52.40
2018-06-20T17:47:17.384Z,52.40
2018-06-20T17:49:49.743Z,51.80
2018-06-20T17:52:22.987Z,51.60
2018-06-20T17:54:54.040Z,52.60
2018-06-20T17:57:26.668Z,52.60
2018-06-20T17:59:59.183Z,51.80
2018-06-20T18:02:34.708Z,51.70
2018-06-20T18:05:17.710Z,51.90
2018-06-20T18:07:56.384Z,52.10
2018-06-20T18:10:34.277Z,52.60
2018-06-20T18:13:05.505Z,52.90
2018-06-20T18:15:42.255Z,53.70
2018-06-20T18:18:12.887Z,55.50
2018-06-20T18:20:43.724Z,56.90
2018-06-20T18:23:14.609Z,58.50
2018-06-20T18:25:45.969Z,59.30
2018-06-20T18:28:16.466Z,60.00
2018-06-20T18:30:49.105Z,60.60
2018-06-20T18:33:21.583Z,61.00
2018-06-20T18:35:53.108Z,61.10
2018-06-20T18:38:24.171Z,61.90
2018-06-20T18:41:04.398Z,61.90
2018-06-20T18:43:42.235Z,62.20
2018-06-20T18:46:13.613Z,63.20
2018-06-20T18:48:48.398Z,63.20
2018-06-20T18:51:19.184Z,63.10
2018-06-20T18:53:49.620Z,63.40
2018-06-20T18:56:20.678Z,63.50
2018-06-20T18:58:57.043Z,63.50
2018-06-20T19:01:33.405Z,63.80
2018-06-20T19:04:10.278Z,63.90
2018-06-20T19:06:48.691Z,64.30
2018-06-20T19:09:22.237Z,64.20
2018-06-20T19:11:52.367Z,64.90
2018-06-20T19:14:28.581Z,65.20
2018-06-20T19:17:00.725Z,65.40
2018-06-20T19:19:32.943Z,65.70
2018-06-20T19:22:04.800Z,66.00
2018-06-20T19:24:34.931Z,66.50
2018-06-20T19:27:06.178Z,66.60
2018-06-20T19:29:37.029Z,67.10
2018-06-20T19:32:07.811Z,67.30
2018-06-20T19:34:40.934Z,67.50
2018-06-20T19:37:13.100Z,67.80
2018-06-20T19:39:49.755Z,68.20
2018-06-20T19:42:24.586Z,68.30
2018-06-20T19:44:57.547Z,68.70
2018-06-20T19:47:28.906Z,69.00
2018-06-20T19:50:00.567Z,69.20
2018-06-20T19:52:33.307Z,69.50
2018-06-20T19:55:05.714Z,69.60
2018-06-20T19:57:38.478Z,69.80
2018-06-20T20:00:15.184Z,70.10
2018-06-20T20:02:47.034Z,70.50
2018-06-20T20:05:23.105Z,70.70
2018-06-20T20:08:00.508Z,70.90
2018-06-20T20:10:32.439Z,71.20
2018-06-20T20:13:03.761Z,71.30
2018-06-20T20:15:35.884Z,71.30
2018-06-20T20:18:08.188Z,71.90
2018-06-20T20:20:41.091Z,71.90
2018-06-20T20:23:12.831Z,72.00
2018-06-20T20:25:48.950Z,72.00
2018-06-20T20:30:52.994Z,72.20
2018-06-20T20:33:27.401Z,72.30
2018-06-20T20:36:03.323Z,72.30
2018-06-20T20:38:35.390Z,72.70
2018-06-20T20:41:07.037Z,72.90
2018-06-20T20:43:38.670Z,73.20
2018-06-20T20:46:10.439Z,73.70
2018-06-20T20:48:47.145Z,73.90
2018-06-20T20:51:18.007Z,74.00
2018-06-20T20:53:49.897Z,74.30
2018-06-20T20:56:21.920Z,74.60
2018-06-20T20:59:08.082Z,75.10
2018-06-20T21:01:40.228Z,75.30
2018-06-20T21:04:10.963Z,75.40
2018-06-20T21:06:41.870Z,75.60
2018-06-20T21:09:12.372Z,75.90
2018-06-20T21:11:47.329Z,76.60
2018-06-20T21:14:18.352Z,76.80
2018-06-20T21:16:48.755Z,77.30
2018-06-20T21:19:19.407Z,77.70
2018-06-20T21:21:49.567Z,77.50
2018-06-20T21:24:19.623Z,77.80
2018-06-20T21:26:50.001Z,77.90
2018-06-20T21:29:21.039Z,78.30
2018-06-20T21:31:56.125Z,78.40
2018-06-20T21:34:26.075Z,78.60
2018-06-20T21:36:57.253Z,78.70
2018-06-20T21:39:27.070Z,78.80
2018-06-20T21:42:03.458Z,79.00
2018-06-20T21:44:34.406Z,79.60
2018-06-20T21:47:04.424Z,80.00
2018-06-20T21:49:34.978Z,80.80
2018-06-20T21:52:04.934Z,81.90
2018-06-20T21:54:35.822Z,82.80
2018-06-20T21:57:06.030Z,83.70
2018-06-20T21:59:36.673Z,83.80
2018-06-20T22:02:08.119Z,84.50
2018-06-20T22:04:39.300Z,85.20
2018-06-20T22:07:13.843Z,85.20
2018-06-20T22:09:45.789Z,85.70
2018-06-20T22:12:17.693Z,86.40
2018-06-20T22:14:48.891Z,86.50
2018-06-20T22:17:20.333Z,86.60
2018-06-20T22:19:52.136Z,86.30
2018-06-20T22:22:24.778Z,86.40
2018-06-20T22:24:56.703Z,86.00
2018-06-20T22:27:28.643Z,86.40
2018-06-20T22:30:00.848Z,86.60
2018-06-20T22:32:34.106Z,87.00
2018-06-20T22:35:05.512Z,87.10
2018-06-20T22:37:38.353Z,86.60
2018-06-20T22:40:10.499Z,86.30
2018-06-20T22:42:43.075Z,87.10
2018-06-20T22:47:46.632Z,87.60
2018-06-20T22:50:19.897Z,88.30
2018-06-20T22:52:52.381Z,88.30
2018-06-20T22:55:25.055Z,88.80
2018-06-20T22:57:57.936Z,88.90
2018-06-20T23:00:29.897Z,89.50
2018-06-20T23:03:02.073Z,90.00
2018-06-20T23:05:33.854Z,90.10
2018-06-20T23:08:04.892Z,90.50
2018-06-20T23:10:40.611Z,90.40
2018-06-20T23:13:12.873Z,90.40
2018-06-20T23:15:46.478Z,89.50
2018-06-20T23:18:18.955Z,89.10
2018-06-20T23:20:51.408Z,89.50
2018-06-20T23:23:22.565Z,89.40
2018-06-20T23:25:59.534Z,89.80
2018-06-20T23:28:31.355Z,89.80
2018-06-20T23:31:03.211Z,89.70
2018-06-20T23:33:35.439Z,89.60
2018-06-20T23:36:07.294Z,89.70
2018-06-20T23:38:41.170Z,89.30
2018-06-20T23:41:13.885Z,89.50
2018-06-20T23:43:46.301Z,90.20
2018-06-20T23:46:19.284Z,90.90
2018-06-20T23:48:52.438Z,91.10
2018-06-20T23:53:59.073Z,91.80
2018-06-20T23:56:31.635Z,92.30
2018-06-20T23:59:04.570Z,92.60
